Time;durP1;ratioP1;P1;durP2;ratioP2;P2;SDS_P1;SDS_P2;PMS_P1;PMS_P2;Temp;Humidity;BMP_temperature;BMP_pressure;BME280_temperature;BME280_humidity;BME280_pressure;Samples;Min_cycle;Max_cycle;Signal;HPM_P1;HPM_P2
2021/05/25 00:01:40;;;;;;;0.80;0.60;;;9.50;99.90;;;;;;5056415;28;20449;-78
2021/05/25 00:04:07;;;;;;;0.60;0.60;;;9.50;99.90;;;;;;5056026;28;20442;-78
2021/05/25 00:06:33;;;;;;;0.97;0.60;;;9.50;99.90;;;;;;5056353;28;20452;-75
2021/05/25 00:08:59;;;;;;;2.20;0.50;;;9.40;99.90;;;;;;5056253;28;20442;-76
2021/05/25 00:11:25;;;;;;;1.10;0.60;;;9.30;99.90;;;;;;5056134;28;20466;-75
2021/05/25 00:13:53;;;;;;;1.17;0.80;;;9.30;99.90;;;;;;5056141;28;20444;-75
2021/05/25 00:16:20;;;;;;;0.70;0.50;;;9.30;99.90;;;;;;5056769;28;20787;-75
2021/05/25 00:18:46;;;;;;;0.63;0.63;;;9.20;99.90;;;;;;5056024;28;20454;-75
2021/05/25 00:21:12;;;;;;;2.13;0.70;;;9.20;99.90;;;;;;5055985;28;20472;-75
2021/05/25 00:23:38;;;;;;;1.97;0.70;;;9.10;99.90;;;;;;5055657;28;20976;-76
2021/05/25 00:26:05;;;;;;;0.77;0.50;;;9.10;99.90;;;;;;5055925;28;20500;-75
2021/05/25 00:28:31;;;;;;;0.90;0.77;;;9.00;99.90;;;;;;5055919;28;20457;-75
2021/05/25 00:30:57;;;;;;;0.73;0.73;;;9.00;99.90;;;;;;5055489;28;20470;-75
2021/05/25 00:33:24;;;;;;;1.73;0.67;;;9.00;99.90;;;;;;5054960;28;20856;-75
2021/05/25 00:35:53;;;;;;;0.73;0.60;;;9.00;99.90;;;;;;5055799;28;20947;-78
2021/05/25 00:38:19;;;;;;;1.07;0.70;;;9.00;99.90;;;;;;5055595;28;20568;-79
2021/05/25 00:40:46;;;;;;;1.80;0.50;;;9.00;99.90;;;;;;5055563;28;20470;-77
2021/05/25 00:43:12;;;;;;;0.50;0.50;;;9.00;99.90;;;;;;5055332;28;21031;-77
2021/05/25 00:45:38;;;;;;;0.60;0.60;;;9.00;99.90;;;;;;5055554;28;20450;-77
2021/05/25 00:48:06;;;;;;;0.93;0.50;;;9.00;99.90;;;;;;5055517;28;20449;-77
2021/05/25 00:50:33;;;;;;;1.03;0.50;;;9.00;99.90;;;;;;5055443;28;20496;-77
2021/05/25 00:53:01;;;;;;;4.87;0.73;;;9.00;99.90;;;;;;5055366;28;20527;-77
2021/05/25 00:55:29;;;;;;;3.47;0.70;;;9.00;99.90;;;;;;5055630;28;20452;-77
2021/05/25 00:57:58;;;;;;;0.90;0.50;;;9.00;99.90;;;;;;5055237;28;20470;-77
2021/05/25 01:00:29;;;;;;;1.17;0.70;;;9.00;99.90;;;;;;5055219;28;20976;-77
2021/05/25 01:02:55;;;;;;;3.53;0.60;;;9.00;99.90;;;;;;5054962;28;20939;-77
2021/05/25 01:05:21;;;;;;;0.50;0.50;;;9.00;99.90;;;;;;5054984;28;20438;-77
2021/05/25 01:07:49;;;;;;;1.27;0.50;;;9.00;99.90;;;;;;5055264;28;20449;-77
2021/05/25 01:10:19;;;;;;;1.53;0.50;;;9.00;99.90;;;;;;5055275;28;20468;-77
2021/05/25 01:12:52;;;;;;;1.50;0.57;;;9.00;99.90;;;;;;5055113;28;20496;-75
2021/05/25 01:15:19;;;;;;;1.37;1.23;;;9.00;99.90;;;;;;5055064;28;20492;-75
2021/05/25 01:17:45;;;;;;;1.57;0.57;;;9.00;99.90;;;;;;5054602;28;20485;-81
2021/05/25 01:20:13;;;;;;;2.20;0.80;;;9.00;99.90;;;;;;5054876;28;20461;-78
2021/05/25 01:22:41;;;;;;;1.63;0.60;;;9.00;99.90;;;;;;5054871;28;20528;-78
2021/05/25 01:25:15;;;;;;;3.23;0.67;;;9.00;99.90;;;;;;5054841;28;20430;-78
2021/05/25 01:27:48;;;;;;;0.80;0.50;;;8.90;99.90;;;;;;5054475;28;20450;-79
2021/05/25 01:30:16;;;;;;;2.00;0.70;;;8.80;99.90;;;;;;5054667;28;20523;-78
2021/05/25 01:32:42;;;;;;;0.60;0.60;;;8.80;99.90;;;;;;5054204;28;21011;-78
2021/05/25 01:35:09;;;;;;;1.00;0.60;;;8.80;99.90;;;;;;5054613;28;20454;-78
2021/05/25 01:37:35;;;;;;;1.63;0.70;;;8.80;99.90;;;;;;5054176;28;20536;-78
2021/05/25 01:40:04;;;;;;;0.60;0.53;;;8.70;99.90;;;;;;5054452;28;20466;-78
2021/05/25 01:42:34;;;;;;;1.10;0.87;;;8.70;99.90;;;;;;5054461;28;20448;-78
2021/05/25 01:45:01;;;;;;;0.60;0.60;;;8.60;99.90;;;;;;5053589;28;20449;-78
2021/05/25 01:47:28;;;;;;;0.90;0.60;;;8.60;99.90;;;;;;5054055;28;20945;-78
2021/05/25 01:50:10;;;;;;;0.70;0.60;;;8.60;99.90;;;;;;5054542;28;20535;-78
2021/05/25 01:52:37;;;;;;;1.80;1.00;;;8.60;99.90;;;;;;5054529;28;20441;-79
2021/05/25 01:55:07;;;;;;;1.27;0.70;;;8.60;99.90;;;;;;5054006;28;20444;-78
2021/05/25 01:57:33;;;;;;;0.77;0.60;;;8.50;99.90;;;;;;5053899;28;20886;-78
2021/05/25 02:00:00;;;;;;;0.70;0.50;;;8.50;99.90;;;;;;5053803;28;20831;-77
2021/05/25 02:02:26;;;;;;;0.57;0.57;;;8.40;99.90;;;;;;5054175;28;20446;-77
2021/05/25 02:04:52;;;;;;;0.73;0.63;;;8.40;99.90;;;;;;5054083;28;20453;-77
2021/05/25 02:07:19;;;;;;;3.10;0.80;;;8.50;99.90;;;;;;5054030;28;20523;-77
2021/05/25 02:09:45;;;;;;;1.00;0.50;;;8.40;99.90;;;;;;5053894;28;20470;-77
2021/05/25 02:12:16;;;;;;;1.50;0.77;;;8.50;99.90;;;;;;5053656;28;20820;-77
2021/05/25 02:14:43;;;;;;;1.23;0.80;;;8.50;99.90;;;;;;5053929;28;20441;-77
2021/05/25 02:17:10;;;;;;;3.90;0.73;;;8.50;99.90;;;;;;5053547;28;20481;-77
2021/05/25 02:19:36;;;;;;;2.63;0.60;;;8.50;99.90;;;;;;5053416;28;20477;-77
2021/05/25 02:22:02;;;;;;;0.60;0.60;;;8.50;99.90;;;;;;5054079;28;20789;-77
2021/05/25 02:24:29;;;;;;;1.90;0.70;;;8.40;99.90;;;;;;5053447;28;20824;-78
2021/05/25 02:26:55;;;;;;;1.47;0.50;;;8.40;99.90;;;;;;5053718;28;20442;-78
2021/05/25 02:29:22;;;;;;;2.27;0.67;;;8.40;99.90;;;;;;5053570;28;20454;-78
2021/05/25 02:31:48;;;;;;;0.50;0.50;;;8.40;99.90;;;;;;5053261;28;20510;-78
2021/05/25 02:34:14;;;;;;;2.33;0.60;;;8.40;99.90;;;;;;5053344;28;20556;-78
2021/05/25 02:36:40;;;;;;;1.13;0.80;;;8.40;99.90;;;;;;5053197;28;20848;-78
2021/05/25 02:39:07;;;;;;;0.93;0.60;;;8.40;99.90;;;;;;5053105;28;20956;-79
2021/05/25 02:41:33;;;;;;;1.50;0.70;;;8.40;99.90;;;;;;5053178;28;20828;-78
2021/05/25 02:43:59;;;;;;;1.17;0.53;;;8.30;99.90;;;;;;5053492;28;20817;-78
2021/05/25 02:46:26;;;;;;;0.67;0.63;;;8.30;99.90;;;;;;5053114;28;20452;-75
2021/05/25 02:48:53;;;;;;;2.53;0.60;;;8.30;99.90;;;;;;5053409;28;20454;-75
2021/05/25 02:51:19;;;;;;;1.00;0.50;;;8.30;99.90;;;;;;5053272;28;20485;-75
2021/05/25 02:53:45;;;;;;;0.53;0.50;;;8.40;99.90;;;;;;5053273;28;20446;-75
2021/05/25 02:56:11;;;;;;;1.20;0.60;;;8.40;99.90;;;;;;5052672;28;20915;-75
2021/05/25 02:58:38;;;;;;;1.03;0.50;;;8.40;99.90;;;;;;5052916;28;20481;-75
2021/05/25 03:01:04;;;;;;;0.70;0.50;;;8.40;99.90;;;;;;5053205;28;20481;-75
2021/05/25 03:03:31;;;;;;;0.50;0.50;;;8.30;99.90;;;;;;5053216;28;20453;-75
2021/05/25 03:05:57;;;;;;;0.83;0.63;;;8.30;99.90;;;;;;5053196;28;20476;-75
2021/05/25 03:08:24;;;;;;;1.83;0.60;;;8.30;99.90;;;;;;5053182;28;20454;-74
2021/05/25 03:10:50;;;;;;;1.60;0.57;;;8.30;99.90;;;;;;5052861;28;20469;-75
2021/05/25 03:13:17;;;;;;;2.93;0.60;;;8.30;99.90;;;;;;5053140;28;20818;-75
2021/05/25 03:15:45;;;;;;;2.63;0.60;;;8.20;99.90;;;;;;5053118;28;20464;-75
2021/05/25 03:18:12;;;;;;;0.60;0.50;;;8.20;99.90;;;;;;5052971;28;20507;-75
2021/05/25 03:20:42;;;;;;;0.87;0.60;;;8.20;99.90;;;;;;5053009;28;20601;-76
2021/05/25 03:23:09;;;;;;;0.90;0.67;;;8.20;99.90;;;;;;5053160;28;20442;-75
2021/05/25 03:25:35;;;;;;;0.50;0.50;;;8.20;99.90;;;;;;5052945;28;20452;-75
2021/05/25 03:28:01;;;;;;;1.53;0.60;;;8.20;99.90;;;;;;5053097;28;20441;-75
2021/05/25 03:30:28;;;;;;;0.57;0.50;;;8.20;99.90;;;;;;5052573;28;20815;-75
2021/05/25 03:32:55;;;;;;;1.20;0.50;;;8.20;99.90;;;;;;5052514;28;21131;-75
2021/05/25 03:35:23;;;;;;;0.60;0.50;;;8.20;99.90;;;;;;5052935;28;20440;-75
2021/05/25 03:37:51;;;;;;;1.57;0.57;;;8.20;99.90;;;;;;5052872;28;20894;-75
2021/05/25 03:40:19;;;;;;;0.70;0.60;;;8.10;99.90;;;;;;5052809;28;20479;-75
2021/05/25 03:42:46;;;;;;;1.27;0.50;;;8.10;99.90;;;;;;5052581;28;20445;-75
2021/05/25 03:45:13;;;;;;;2.80;0.60;;;8.10;99.90;;;;;;5053017;28;20445;-75
2021/05/25 03:47:39;;;;;;;1.37;0.50;;;8.10;99.90;;;;;;5052792;28;20441;-74
2021/05/25 03:50:07;;;;;;;1.27;0.50;;;8.20;99.90;;;;;;5052468;28;20466;-75
2021/05/25 03:52:35;;;;;;;0.50;0.47;;;8.30;99.90;;;;;;5053087;28;20446;-75
2021/05/25 03:55:05;;;;;;;0.50;0.40;;;8.40;99.90;;;;;;5052770;28;20445;-75
2021/05/25 04:00:16;;;;;;;0.83;0.70;;;8.50;99.90;;;;;;5052608;28;20449;-75
2021/05/25 04:02:42;;;;;;;2.33;0.50;;;8.50;99.90;;;;;;5052356;28;20965;-75
2021/05/25 04:05:09;;;;;;;2.20;0.70;;;8.60;99.90;;;;;;5052362;28;20450;-75
2021/05/25 04:07:35;;;;;;;0.80;0.40;;;8.70;99.90;;;;;;5054539;28;20453;-80
2021/05/25 04:10:03;;;;;;;1.80;0.50;;;8.60;99.90;;;;;;5056173;28;20477;-80
2021/05/25 04:12:30;;;;;;;0.50;0.50;;;8.60;99.90;;;;;;5056209;28;20503;-80
2021/05/25 04:14:56;;;;;;;0.50;0.50;;;8.60;99.90;;;;;;5056445;28;20441;-80
2021/05/25 04:17:22;;;;;;;4.70;0.60;;;8.60;99.90;;;;;;5056097;28;20484;-81
2021/05/25 04:19:48;;;;;;;0.50;0.50;;;8.60;99.90;;;;;;5055971;28;20471;-81
2021/05/25 04:22:14;;;;;;;0.50;0.47;;;8.60;99.90;;;;;;5056271;28;20453;-80
2021/05/25 04:24:41;;;;;;;0.60;0.60;;;8.50;99.90;;;;;;5055994;28;20453;-80
2021/05/25 04:27:08;;;;;;;1.50;0.50;;;8.60;99.90;;;;;;5055936;28;20441;-81
2021/05/25 04:29:34;;;;;;;0.40;0.40;;;8.50;99.90;;;;;;5055865;28;20473;-79
2021/05/25 04:32:00;;;;;;;0.60;0.50;;;8.50;99.90;;;;;;5055646;28;20993;-78
2021/05/25 04:34:26;;;;;;;0.50;0.40;;;8.50;99.90;;;;;;5055483;28;20817;-78
2021/05/25 04:36:53;;;;;;;1.53;0.40;;;8.60;99.90;;;;;;5055376;28;20849;-77
2021/05/25 04:39:19;;;;;;;0.50;0.40;;;8.70;99.90;;;;;;5055618;28;20504;-77
2021/05/25 04:41:45;;;;;;;1.60;0.50;;;8.80;99.90;;;;;;5055675;28;20450;-77
2021/05/25 04:44:12;;;;;;;1.63;0.43;;;8.80;99.90;;;;;;5055655;28;20844;-77
2021/05/25 04:46:39;;;;;;;0.87;0.37;;;8.80;99.90;;;;;;5055273;28;20945;-77
2021/05/25 04:49:05;;;;;;;0.47;0.40;;;8.90;99.90;;;;;;5055428;28;20461;-77
2021/05/25 04:51:31;;;;;;;0.40;0.40;;;9.00;99.90;;;;;;5055544;28;20456;-77
2021/05/25 04:53:57;;;;;;;0.40;0.33;;;9.00;99.90;;;;;;5055435;28;20525;-80
2021/05/25 04:56:23;;;;;;;1.90;0.40;;;9.10;99.90;;;;;;5055113;28;20949;-80
2021/05/25 04:58:50;;;;;;;0.40;0.40;;;9.00;99.90;;;;;;5055290;28;20493;-80
2021/05/25 05:01:17;;;;;;;0.40;0.40;;;9.00;99.90;;;;;;5055236;28;20481;-80
2021/05/25 05:03:43;;;;;;;0.97;0.40;;;9.00;99.90;;;;;;5055285;28;20453;-78
2021/05/25 05:06:09;;;;;;;0.47;0.40;;;9.00;99.90;;;;;;5054914;28;20945;-79
2021/05/25 05:08:35;;;;;;;3.70;0.50;;;9.00;99.90;;;;;;5055428;28;20814;-78
2021/05/25 05:11:02;;;;;;;0.80;0.40;;;9.10;99.90;;;;;;5055075;28;20466;-78
2021/05/25 05:13:28;;;;;;;1.70;0.60;;;9.10;99.90;;;;;;5055086;28;20469;-78
2021/05/25 05:15:54;;;;;;;1.20;0.50;;;9.00;99.90;;;;;;5055028;28;20481;-79
2021/05/25 05:18:21;;;;;;;0.53;0.40;;;9.10;99.90;;;;;;5054717;28;20474;-79
2021/05/25 05:20:47;;;;;;;0.40;0.40;;;9.20;99.90;;;;;;5054875;28;20466;-79
2021/05/25 05:23:13;;;;;;;0.70;0.50;;;9.40;99.90;;;;;;5054884;28;20445;-79
2021/05/25 05:25:40;;;;;;;3.23;0.50;;;9.50;99.90;;;;;;5054813;28;20503;-75
2021/05/25 05:28:06;;;;;;;0.77;0.47;;;9.70;99.90;;;;;;5055074;28;20449;-75
2021/05/25 05:30:33;;;;;;;1.07;0.50;;;9.90;99.90;;;;;;5054492;28;20997;-76
2021/05/25 05:32:59;;;;;;;0.50;0.50;;;10.00;99.90;;;;;;5054265;28;20477;-76
2021/05/25 05:35:26;;;;;;;0.97;0.47;;;10.10;99.90;;;;;;5054659;28;20450;-75
2021/05/25 05:37:52;;;;;;;0.50;0.43;;;10.20;99.90;;;;;;5054520;28;20485;-75
2021/05/25 05:40:19;;;;;;;0.50;0.50;;;10.10;99.90;;;;;;5054187;28;20811;-79
2021/05/25 05:42:45;;;;;;;1.50;0.40;;;10.20;99.90;;;;;;5054504;28;20503;-79
2021/05/25 05:45:12;;;;;;;0.63;0.43;;;10.20;99.90;;;;;;5054273;28;20874;-79
2021/05/25 05:47:39;;;;;;;0.40;0.40;;;10.20;99.90;;;;;;5054102;28;20968;-79
2021/05/25 05:50:10;;;;;;;1.00;0.50;;;10.20;99.90;;;;;;5054304;28;20469;-79
2021/05/25 05:52:37;;;;;;;0.93;0.60;;;10.30;99.90;;;;;;5054059;28;20999;-79
2021/05/25 05:55:06;;;;;;;1.17;0.50;;;10.40;99.90;;;;;;5054313;28;20449;-79
2021/05/25 05:57:32;;;;;;;0.80;0.40;;;10.50;99.90;;;;;;5054112;28;20485;-79
2021/05/25 05:59:58;;;;;;;1.67;0.43;;;10.70;99.90;;;;;;5053899;28;20482;-78
2021/05/25 06:02:25;;;;;;;1.33;0.50;;;10.90;99.90;;;;;;5054139;28;20450;-79
2021/05/25 06:04:51;;;;;;;0.63;0.50;;;11.00;99.90;;;;;;5053813;28;20976;-79
2021/05/25 06:07:19;;;;;;;1.57;0.50;;;11.10;99.90;;;;;;5054064;28;20492;-79
2021/05/25 06:09:47;;;;;;;0.70;0.60;;;11.40;99.90;;;;;;5053626;28;20843;-79
2021/05/25 06:12:13;;;;;;;0.90;0.60;;;11.60;99.90;;;;;;5053975;28;20486;-79
2021/05/25 06:14:39;;;;;;;0.60;0.60;;;11.80;99.90;;;;;;5053996;28;20453;-79
2021/05/25 06:17:05;;;;;;;0.50;0.47;;;12.00;99.90;;;;;;5053955;28;20485;-79
2021/05/25 06:19:32;;;;;;;1.50;0.50;;;12.00;99.90;;;;;;5053651;28;20992;-81
2021/05/25 06:21:58;;;;;;;0.50;0.40;;;11.80;99.90;;;;;;5053832;28;20953;-81
2021/05/25 06:24:24;;;;;;;0.50;0.40;;;11.70;99.90;;;;;;5054035;28;20442;-82
2021/05/25 06:26:51;;;;;;;0.40;0.40;;;11.80;99.90;;;;;;5054004;28;20453;-79
2021/05/25 06:29:17;;;;;;;0.60;0.50;;;12.30;99.90;;;;;;5053303;28;20449;-81
2021/05/25 06:31:44;;;;;;;1.00;0.50;;;12.40;99.90;;;;;;5053554;28;20478;-81
2021/05/25 06:34:10;;;;;;;0.77;0.40;;;12.70;99.90;;;;;;5053813;28;20957;-81
2021/05/25 06:36:36;;;;;;;0.60;0.60;;;12.90;99.90;;;;;;5054321;28;20442;-81
2021/05/25 06:39:03;;;;;;;3.30;0.50;;;13.00;99.90;;;;;;5053965;28;20481;-80
2021/05/25 06:41:29;;;;;;;0.50;0.37;;;13.30;99.90;;;;;;5053435;28;20465;-80
2021/05/25 06:43:56;;;;;;;1.33;0.50;;;13.60;99.90;;;;;;5053897;28;20858;-80
2021/05/25 06:46:22;;;;;;;0.50;0.50;;;14.40;99.90;;;;;;5053124;28;20814;-76
2021/05/25 06:48:48;;;;;;;1.83;0.60;;;14.70;98.40;;;;;;5053358;28;20945;-76
2021/05/25 06:51:15;;;;;;;0.70;0.50;;;14.70;97.30;;;;;;5053091;28;20470;-76
2021/05/25 06:53:41;;;;;;;1.00;0.50;;;14.60;95.70;;;;;;5053460;28;20454;-76
2021/05/25 06:56:07;;;;;;;0.70;0.50;;;14.70;95.30;;;;;;5053324;28;20796;-76
2021/05/25 06:58:33;;;;;;;2.50;0.50;;;15.20;95.30;;;;;;5053219;28;20481;-76
2021/05/25 07:01:00;;;;;;;0.50;0.50;;;15.90;94.50;;;;;;5052880;28;20908;-75
2021/05/25 07:03:27;;;;;;;0.40;0.40;;;16.10;91.10;;;;;;5053193;28;20446;-75
2021/05/25 07:05:53;;;;;;;1.67;0.40;;;15.90;91.10;;;;;;5053211;28;20442;-76
2021/05/25 07:08:19;;;;;;;1.33;0.53;;;15.40;90.40;;;;;;5053187;28;20438;-76
2021/05/25 07:10:46;;;;;;;0.40;0.40;;;16.00;90.60;;;;;;5053035;28;20477;-80
2021/05/25 07:13:12;;;;;;;0.70;0.43;;;17.10;88.50;;;;;;5053149;28;20498;-78
2021/05/25 07:15:39;;;;;;;0.60;0.50;;;17.80;80.90;;;;;;5053294;28;20442;-77
2021/05/25 07:18:06;;;;;;;0.40;0.40;;;18.70;78.30;;;;;;5052796;28;20473;-77
2021/05/25 07:20:32;;;;;;;1.67;0.47;;;19.70;71.30;;;;;;5053030;28;20465;-76
2021/05/25 07:22:59;;;;;;;1.08;0.40;;;20.70;68.80;;;;;;5053071;28;20273;-78
2021/05/25 07:25:26;;;;;;;0.52;0.52;;;21.50;63.50;;;;;;5052736;28;20343;-77
2021/05/25 07:27:53;;;;;;;0.60;0.40;;;21.60;55.50;;;;;;5053207;28;20568;-77
2021/05/25 07:30:21;;;;;;;2.50;0.45;;;20.90;56.20;;;;;;5052588;28;20598;-77
2021/05/25 07:32:47;;;;;;;0.73;0.40;;;19.80;57.70;;;;;;5052570;28;20245;-80
2021/05/25 07:35:15;;;;;;;1.80;0.77;;;18.80;59.50;;;;;;5053222;28;20456;-79
2021/05/25 07:37:41;;;;;;;0.80;0.60;;;18.50;61.10;;;;;;5053215;28;20485;-80
2021/05/25 07:40:09;;;;;;;1.37;0.40;;;18.20;62.20;;;;;;5052735;28;20843;-80
2021/05/25 07:42:35;;;;;;;0.50;0.40;;;17.70;62.80;;;;;;5055080;28;20818;-78
2021/05/25 07:45:01;;;;;;;1.53;0.50;;;17.60;62.50;;;;;;5056922;28;20449;-80
2021/05/25 07:47:29;;;;;;;0.60;0.50;;;17.80;61.90;;;;;;5056698;28;20441;-80
2021/05/25 07:49:55;;;;;;;2.00;0.60;;;17.60;64.40;;;;;;5056586;28;20485;-79
2021/05/25 07:52:23;;;;;;;0.80;0.50;;;17.00;62.80;;;;;;5056598;28;20450;-76
2021/05/25 07:54:50;;;;;;;0.60;0.47;;;16.50;65.40;;;;;;5056800;28;20495;-76
2021/05/25 07:57:16;;;;;;;1.73;0.40;;;16.50;66.40;;;;;;5056488;28;20485;-76
2021/05/25 07:59:42;;;;;;;0.50;0.40;;;17.40;65.60;;;;;;5056482;28;20477;-79
2021/05/25 08:02:08;;;;;;;1.23;0.50;;;18.00;60.60;;;;;;5056298;28;20457;-81
2021/05/25 08:04:34;;;;;;;0.60;0.50;;;18.20;60.20;;;;;;5056169;28;20456;-79
2021/05/25 08:07:01;;;;;;;1.13;0.40;;;17.90;60.80;;;;;;5056365;28;20430;-79
2021/05/25 08:09:28;;;;;;;2.60;0.50;;;17.50;61.00;;;;;;5056222;28;20472;-80
2021/05/25 08:11:54;;;;;;;2.20;0.67;;;16.90;60.70;;;;;;5056294;28;20453;-78
2021/05/25 08:14:20;;;;;;;4.20;0.60;;;16.50;62.30;;;;;;5055943;28;20438;-78
2021/05/25 08:16:46;;;;;;;0.83;0.40;;;16.30;62.60;;;;;;5056210;28;20499;-78
2021/05/25 08:19:23;;;;;;;1.20;0.50;;;16.00;63.00;;;;;;5055751;28;20489;-79
2021/05/25 08:21:49;;;;;;;0.60;0.50;;;15.90;63.30;;;;;;5056529;28;20453;-78
2021/05/25 08:24:15;;;;;;;5.33;0.60;;;16.10;63.70;;;;;;5055676;28;20872;-78
2021/05/25 08:26:43;;;;;;;0.80;0.50;;;16.20;62.80;;;;;;5055960;28;20449;-77
2021/05/25 08:29:09;;;;;;;0.87;0.50;;;16.40;63.80;;;;;;5055828;28;20442;-77
2021/05/25 08:31:35;;;;;;;0.40;0.40;;;16.10;63.60;;;;;;5055489;28;20489;-77
2021/05/25 08:34:02;;;;;;;0.50;0.50;;;15.90;65.60;;;;;;5055813;28;20449;-77
2021/05/25 08:36:30;;;;;;;1.47;0.40;;;16.00;66.70;;;;;;5055855;28;20484;-77
2021/05/25 08:38:56;;;;;;;0.40;0.40;;;16.20;64.60;;;;;;5055585;28;20477;-77
2021/05/25 08:41:23;;;;;;;0.97;0.43;;;16.30;63.80;;;;;;5055643;28;20465;-78
2021/05/25 08:43:50;;;;;;;2.73;1.60;;;16.60;64.70;;;;;;5055597;28;20503;-79
2021/05/25 08:46:16;;;;;;;0.47;0.40;;;17.30;62.60;;;;;;5055275;28;20974;-78
2021/05/25 08:48:43;;;;;;;1.00;0.50;;;17.60;62.00;;;;;;5055561;28;20820;-79
2021/05/25 08:51:10;;;;;;;1.33;0.50;;;17.50;62.00;;;;;;5055696;28;20469;-79
2021/05/25 08:53:37;;;;;;;1.63;0.40;;;17.60;61.20;;;;;;5054921;28;20442;-78
2021/05/25 08:56:05;;;;;;;0.63;0.50;;;17.50;62.90;;;;;;5055436;28;20457;-79
2021/05/25 08:58:32;;;;;;;1.23;0.50;;;17.30;62.70;;;;;;5055416;28;20485;-78
2021/05/25 09:00:59;;;;;;;0.40;0.40;;;17.20;61.30;;;;;;5055272;28;20881;-77
2021/05/25 09:03:25;;;;;;;0.70;0.40;;;16.70;61.60;;;;;;5055210;28;20438;-77
2021/05/25 09:05:55;;;;;;;1.70;0.40;;;16.60;61.70;;;;;;5055260;28;20446;-78
2021/05/25 09:08:22;;;;;;;2.60;0.50;;;16.50;61.30;;;;;;5055225;28;20450;-79
2021/05/25 09:10:48;;;;;;;1.50;0.60;;;16.00;62.70;;;;;;5055100;28;20474;-76
2021/05/25 09:13:17;;;;;;;2.50;0.50;;;15.80;64.00;;;;;;5055283;28;20548;-76
2021/05/25 09:15:46;;;;;;;1.70;0.40;;;15.80;64.30;;;;;;5055074;28;20508;-75
2021/05/25 09:18:14;;;;;;;0.93;0.40;;;15.70;64.90;;;;;;5054607;28;21107;-76
2021/05/25 09:20:43;;;;;;;1.70;0.50;;;15.40;63.90;;;;;;5054909;28;20844;-75
2021/05/25 09:23:11;;;;;;;1.57;0.47;;;15.30;64.40;;;;;;5055172;28;20449;-76
2021/05/25 09:25:50;;;;;;;3.83;0.50;;;15.20;66.10;;;;;;5055103;28;20458;-76
2021/05/25 09:28:16;;;;;;;0.70;0.50;;;15.20;67.90;;;;;;5054904;28;20771;-76
2021/05/25 09:30:45;;;;;;;2.07;1.10;;;15.20;67.30;;;;;;5054745;28;20926;-76
2021/05/25 09:33:12;;;;;;;1.47;0.50;;;15.20;66.70;;;;;;5054413;28;20512;-76
2021/05/25 09:35:40;;;;;;;1.37;0.60;;;15.10;67.40;;;;;;5054687;28;20442;-75
2021/05/25 09:38:08;;;;;;;1.13;0.50;;;15.00;66.90;;;;;;5054528;28;20514;-75
2021/05/25 09:40:35;;;;;;;2.53;0.53;;;14.90;67.00;;;;;;5054809;28;20474;-79
2021/05/25 09:43:13;;;;;;;0.50;0.40;;;14.90;67.00;;;;;;5054847;28;20913;-79
2021/05/25 09:46:05;;;;;;;0.60;0.50;;;14.90;64.80;;;;;;5054626;28;20975;-79
2021/05/25 09:48:52;;;;;;;0.60;0.60;;;15.00;65.50;;;;;;5054859;28;20460;-80
2021/05/25 09:51:20;;;;;;;0.70;0.43;;;14.90;70.40;;;;;;5054754;28;20543;-79
2021/05/25 09:53:47;;;;;;;1.97;0.60;;;14.60;72.60;;;;;;5054677;28;20450;-79
2021/05/25 09:56:21;;;;;;;1.57;0.70;;;14.50;73.50;;;;;;5054347;28;20453;-79
2021/05/25 09:58:47;;;;;;;1.47;0.90;;;14.70;73.40;;;;;;5054122;28;20981;-79
2021/05/25 10:01:13;;;;;;;3.70;0.60;;;15.20;76.00;;;;;;5053846;28;21019;-77
2021/05/25 10:03:47;;;;;;;2.00;0.67;;;15.60;73.00;;;;;;5054063;28;20528;-78
2021/05/25 10:06:14;;;;;;;0.70;0.50;;;15.60;71.00;;;;;;5053523;28;20568;-77
2021/05/25 10:08:43;;;;;;;9.63;0.70;;;15.50;71.00;;;;;;5053743;28;20937;-78
2021/05/25 10:11:10;;;;;;;0.77;0.50;;;15.90;70.40;;;;;;5054077;28;20564;-77
2021/05/25 10:13:36;;;;;;;1.23;0.50;;;16.50;64.00;;;;;;5053907;28;20450;-78
2021/05/25 10:16:05;;;;;;;0.50;0.50;;;17.00;63.20;;;;;;5054156;28;20454;-78
2021/05/25 10:18:37;;;;;;;3.20;0.50;;;17.20;60.40;;;;;;5053557;28;20992;-77
2021/05/25 10:21:07;;;;;;;0.50;0.50;;;17.50;61.40;;;;;;5053848;28;20499;-79
2021/05/25 10:23:34;;;;;;;2.23;0.60;;;17.60;60.20;;;;;;5053806;28;20480;-80
2021/05/25 10:26:08;;;;;;;2.43;0.80;;;17.50;59.60;;;;;;5053743;28;20469;-79
2021/05/25 10:28:39;;;;;;;1.23;0.50;;;17.20;60.90;;;;;;5054548;28;20779;-79
2021/05/25 10:31:24;;;;;;;1.70;0.50;;;16.70;61.80;;;;;;5053489;28;20489;-79
2021/05/25 10:34:15;;;;;;;0.70;0.60;;;16.10;62.50;;;;;;5053745;28;20450;-79
2021/05/25 10:36:43;;;;;;;1.23;0.50;;;15.50;63.40;;;;;;5053697;28;20437;-78
2021/05/25 10:39:10;;;;;;;4.77;0.70;;;15.20;65.90;;;;;;5053638;28;20481;-79
2021/05/25 10:41:42;;;;;;;1.07;0.50;;;14.90;67.00;;;;;;5053668;28;20460;-79
2021/05/25 10:44:08;;;;;;;0.50;0.47;;;14.80;67.40;;;;;;5053538;28;20439;-78
2021/05/25 10:46:34;;;;;;;1.03;0.50;;;14.70;69.20;;;;;;5053193;28;20814;-78
2021/05/25 10:49:12;;;;;;;1.83;0.80;;;14.60;68.90;;;;;;5053507;28;20445;-79
2021/05/25 10:52:08;;;;;;;2.50;0.60;;;14.60;69.60;;;;;;5053428;28;20872;-78
2021/05/25 10:54:46;;;;;;;1.70;0.60;;;14.60;69.20;;;;;;5053491;28;20513;-80
2021/05/25 10:57:50;;;;;;;1.37;0.50;;;14.50;68.60;;;;;;5053652;28;20437;-79
2021/05/25 11:00:38;;;;;;;3.40;0.50;;;14.40;69.60;;;;;;5053231;28;20999;-79
2021/05/25 11:03:17;;;;;;;3.40;0.60;;;14.50;69.10;;;;;;5053556;28;20496;-78
2021/05/25 11:05:48;;;;;;;1.77;0.90;;;14.50;67.10;;;;;;5053844;28;20843;-79
2021/05/25 11:08:37;;;;;;;1.90;0.60;;;14.40;66.40;;;;;;5053279;28;20496;-79
2021/05/25 11:11:28;;;;;;;1.17;0.53;;;14.30;69.60;;;;;;5048566;28;21105;-78
2021/05/25 11:13:55;;;;;;;2.10;0.53;;;14.20;73.00;;;;;;5044657;28;20477;-79
2021/05/25 11:16:28;;;;;;;2.20;0.70;;;14.10;73.00;;;;;;5054819;28;20446;-78
2021/05/25 11:19:19;;;;;;;0.60;0.50;;;13.90;73.60;;;;;;5057258;28;20473;-79
2021/05/25 11:24:33;;;;;;;1.90;0.70;;;13.70;72.60;;;;;;5055005;28;20434;-78
2021/05/25 11:27:04;;;;;;;0.93;0.50;;;13.60;81.50;;;;;;5057101;28;20503;-79
2021/05/25 11:29:31;;;;;;;1.33;0.57;;;13.40;84.40;;;;;;5057060;28;20464;-79
2021/05/25 11:32:03;;;;;;;0.50;0.50;;;13.50;90.70;;;;;;5056435;28;20485;-79
2021/05/25 11:34:29;;;;;;;0.60;0.50;;;13.50;91.10;;;;;;5057048;28;20436;-79
2021/05/25 11:37:02;;;;;;;1.00;0.73;;;13.50;90.60;;;;;;5057567;28;20438;-79
2021/05/25 11:39:30;;;;;;;1.37;0.60;;;13.40;90.50;;;;;;5056793;28;20482;-79
2021/05/25 11:41:57;;;;;;;3.40;0.97;;;13.30;92.20;;;;;;5057103;28;20450;-79
2021/05/25 11:44:31;;;;;;;1.67;0.70;;;13.30;95.10;;;;;;5056709;28;20453;-78
2021/05/25 11:46:58;;;;;;;2.57;1.10;;;13.40;96.30;;;;;;5056804;28;20568;-79
2021/05/25 11:49:25;;;;;;;1.37;1.27;;;13.70;98.50;;;;;;5056582;28;20545;-79
2021/05/25 11:51:52;;;;;;;1.90;0.70;;;13.80;93.00;;;;;;5057034;28;20473;-79
2021/05/25 11:54:19;;;;;;;0.50;0.50;;;13.90;93.40;;;;;;5056818;28;20449;-79
2021/05/25 11:56:48;;;;;;;1.10;0.60;;;14.00;92.00;;;;;;5056620;28;20449;-77
2021/05/25 11:59:20;;;;;;;0.63;0.50;;;14.00;91.70;;;;;;5056386;28;20543;-77
2021/05/25 12:01:49;;;;;;;1.30;0.70;;;14.10;90.60;;;;;;5056477;28;20445;-77
2021/05/25 12:04:16;;;;;;;0.73;0.50;;;14.20;90.40;;;;;;5056155;28;20441;-77
2021/05/25 12:06:54;;;;;;;1.27;0.53;;;14.30;90.60;;;;;;5056429;28;20446;-79
2021/05/25 12:09:26;;;;;;;1.23;0.70;;;14.40;90.20;;;;;;5055964;28;20455;-80
2021/05/25 12:11:57;;;;;;;1.03;0.60;;;14.60;87.70;;;;;;5056779;28;20449;-79
2021/05/25 12:14:29;;;;;;;1.23;0.60;;;14.70;87.40;;;;;;5056005;28;20433;-79
2021/05/25 12:16:57;;;;;;;0.90;0.50;;;14.90;83.00;;;;;;5055983;28;20429;-80
2021/05/25 12:19:24;;;;;;;1.33;0.60;;;15.00;79.30;;;;;;5055993;28;20478;-79
2021/05/25 12:21:59;;;;;;;1.50;0.57;;;15.00;79.70;;;;;;5056111;28;20442;-79
2021/05/25 12:24:29;;;;;;;0.70;0.60;;;14.90;79.00;;;;;;5056101;28;20433;-79
2021/05/25 12:26:56;;;;;;;1.03;0.60;;;14.80;76.80;;;;;;5055768;28;20457;-80
2021/05/25 12:29:25;;;;;;;1.20;0.60;;;14.60;78.60;;;;;;5055004;28;20452;-77
2021/05/25 12:31:52;;;;;;;1.10;0.60;;;14.40;77.90;;;;;;5055760;28;20473;-76
2021/05/25 12:34:20;;;;;;;2.83;1.03;;;14.20;79.50;;;;;;5055845;28;20454;-76
2021/05/25 12:36:54;;;;;;;3.30;0.80;;;14.10;81.10;;;;;;5055813;28;20453;-76
2021/05/25 12:39:33;;;;;;;0.93;0.77;;;14.00;85.60;;;;;;5055608;28;20486;-76
2021/05/25 12:41:59;;;;;;;3.50;0.60;;;14.00;88.30;;;;;;5055749;28;20430;-76
2021/05/25 12:44:28;;;;;;;3.33;0.50;;;14.00;88.80;;;;;;5055965;28;20446;-76
2021/05/25 12:46:59;;;;;;;1.10;0.60;;;14.10;86.00;;;;;;5055651;28;20507;-76
2021/05/25 12:49:30;;;;;;;5.13;1.10;;;14.20;82.30;;;;;;5055518;28;20449;-76
2021/05/25 12:52:19;;;;;;;3.23;0.53;;;14.40;82.50;;;;;;5055501;28;20464;-76
2021/05/25 12:54:56;;;;;;;1.60;0.50;;;14.40;77.30;;;;;;5055145;28;20812;-76
2021/05/25 12:57:25;;;;;;;0.60;0.47;;;14.30;75.80;;;;;;5055512;28;20425;-76
2021/05/25 13:00:01;;;;;;;1.33;0.60;;;14.20;74.80;;;;;;5055319;28;20489;-76
2021/05/25 13:02:42;;;;;;;1.63;0.50;;;14.20;73.80;;;;;;5055290;28;20804;-75